sensor_id;sensor_type;location;lat;lon;timestamp;pressure;altitude;pressure_sealevel;temperature;humidity
72896;BME280;61036;53.224;6.554;2023-07-22T00:01:59;101254.28;;;20.39;100.00
72896;BME280;61036;53.224;6.554;2023-07-22T00:04:25;101249.69;;;20.48;100.00
72896;BME280;61036;53.224;6.554;2023-07-22T00:06:52;101251.13;;;19.93;100.00
72896;BME280;61036;53.224;6.554;2023-07-22T00:09:17;101243.47;;;20.05;100.00
72896;BME280;61036;53.224;6.554;2023-07-22T00:11:43;101241.97;;;20.19;100.00
72896;BME280;61036;53.224;6.554;2023-07-22T00:14:08;101234.25;;;20.22;100.00
72896;BME280;61036;53.224;6.554;2023-07-22T00:16:34;101232.03;;;20.42;100.00
72896;BME280;61036;53.224;6.554;2023-07-22T00:19:00;101236.00;;;20.48;100.00
72896;BME280;61036;53.224;6.554;2023-07-22T00:21:26;101235.47;;;20.28;100.00
72896;BME280;61036;53.224;6.554;2023-07-22T00:23:51;101243.53;;;19.71;100.00
72896;BME280;61036;53.224;6.554;2023-07-22T00:26:17;101235.94;;;20.07;100.00
72896;BME280;61036;53.224;6.554;2023-07-22T00:28:42;101236.75;;;19.99;100.00
72896;BME280;61036;53.224;6.554;2023-07-22T00:31:09;101238.13;;;20.03;100.00
72896;BME280;61036;53.224;6.554;2023-07-22T00:33:34;101240.28;;;19.75;100.00
72896;BME280;61036;53.224;6.554;2023-07-22T00:36:00;101236.13;;;20.14;100.00
72896;BME280;61036;53.224;6.554;2023-07-22T00:38:25;101235.28;;;20.13;100.00
72896;BME280;61036;53.224;6.554;2023-07-22T00:40:54;101240.56;;;20.15;100.00
72896;BME280;61036;53.224;6.554;2023-07-22T00:43:19;101234.94;;;20.16;100.00
72896;BME280;61036;53.224;6.554;2023-07-22T00:45:45;101236.69;;;19.75;100.00
72896;BME280;61036;53.224;6.554;2023-07-22T00:48:10;101244.44;;;19.53;100.00
72896;BME280;61036;53.224;6.554;2023-07-22T00:50:38;101240.84;;;19.61;100.00
72896;BME280;61036;53.224;6.554;2023-07-22T00:53:04;101236.63;;;19.32;100.00
72896;BME280;61036;53.224;6.554;2023-07-22T00:55:32;101240.97;;;19.77;100.00
72896;BME280;61036;53.224;6.554;2023-07-22T00:57:58;101238.06;;;19.71;100.00
72896;BME280;61036;53.224;6.554;2023-07-22T01:00:24;101232.91;;;19.41;100.00
72896;BME280;61036;53.224;6.554;2023-07-22T01:02:49;101233.69;;;19.60;100.00
72896;BME280;61036;53.224;6.554;2023-07-22T01:05:15;101239.84;;;19.62;100.00
72896;BME280;61036;53.224;6.554;2023-07-22T01:07:41;101232.25;;;19.82;100.00
72896;BME280;61036;53.224;6.554;2023-07-22T01:10:07;101237.59;;;19.57;100.00
72896;BME280;61036;53.224;6.554;2023-07-22T01:12:33;101237.81;;;19.30;100.00
72896;BME280;61036;53.224;6.554;2023-07-22T01:14:59;101239.31;;;19.24;100.00
72896;BME280;61036;53.224;6.554;2023-07-22T01:17:26;101239.44;;;19.14;100.00
72896;BME280;61036;53.224;6.554;2023-07-22T01:19:52;101240.53;;;19.30;100.00
72896;BME280;61036;53.224;6.554;2023-07-22T01:22:18;101239.84;;;19.28;100.00
72896;BME280;61036;53.224;6.554;2023-07-22T01:24:43;101247.50;;;18.98;100.00
72896;BME280;61036;53.224;6.554;2023-07-22T01:27:09;101246.72;;;19.06;100.00
72896;BME280;61036;53.224;6.554;2023-07-22T01:29:36;101240.28;;;19.41;100.00
72896;BME280;61036;53.224;6.554;2023-07-22T01:32:02;101236.19;;;19.45;100.00
72896;BME280;61036;53.224;6.554;2023-07-22T01:34:27;101238.34;;;19.33;100.00
72896;BME280;61036;53.224;6.554;2023-07-22T01:36:53;101229.06;;;18.74;100.00
72896;BME280;61036;53.224;6.554;2023-07-22T01:39:19;101234.97;;;18.87;100.00
72896;BME280;61036;53.224;6.554;2023-07-22T01:41:45;101236.38;;;19.17;100.00
72896;BME280;61036;53.224;6.554;2023-07-22T01:44:10;101232.47;;;19.20;100.00
72896;BME280;61036;53.224;6.554;2023-07-22T01:46:37;101226.03;;;19.29;100.00
72896;BME280;61036;53.224;6.554;2023-07-22T01:49:10;101224.59;;;19.51;100.00
72896;BME280;61036;53.224;6.554;2023-07-22T01:51:37;101218.53;;;19.39;100.00
72896;BME280;61036;53.224;6.554;2023-07-22T01:54:08;101218.63;;;19.22;100.00
72896;BME280;61036;53.224;6.554;2023-07-22T01:56:38;101225.75;;;19.14;100.00
72896;BME280;61036;53.224;6.554;2023-07-22T01:59:05;101235.22;;;19.28;100.00
72896;BME280;61036;53.224;6.554;2023-07-22T02:01:31;101233.84;;;19.24;100.00
72896;BME280;61036;53.224;6.554;2023-07-22T02:03:57;101230.78;;;19.27;100.00
72896;BME280;61036;53.224;6.554;2023-07-22T02:06:23;101216.72;;;19.22;100.00
72896;BME280;61036;53.224;6.554;2023-07-22T02:08:48;101223.09;;;19.23;100.00
72896;BME280;61036;53.224;6.554;2023-07-22T02:11:14;101228.19;;;19.17;100.00
72896;BME280;61036;53.224;6.554;2023-07-22T02:13:40;101232.63;;;19.18;100.00
72896;BME280;61036;53.224;6.554;2023-07-22T02:16:05;101230.38;;;19.14;100.00
72896;BME280;61036;53.224;6.554;2023-07-22T02:18:31;101228.63;;;19.13;100.00
72896;BME280;61036;53.224;6.554;2023-07-22T02:20:57;101223.44;;;19.28;100.00
72896;BME280;61036;53.224;6.554;2023-07-22T02:23:23;101229.66;;;19.12;100.00
72896;BME280;61036;53.224;6.554;2023-07-22T02:25:53;101221.94;;;19.33;100.00
72896;BME280;61036;53.224;6.554;2023-07-22T02:28:19;101225.00;;;19.30;100.00
72896;BME280;61036;53.224;6.554;2023-07-22T02:30:53;101228.31;;;19.16;100.00
72896;BME280;61036;53.224;6.554;2023-07-22T02:33:20;101226.53;;;18.99;100.00
72896;BME280;61036;53.224;6.554;2023-07-22T02:35:47;101227.41;;;19.07;100.00
72896;BME280;61036;53.224;6.554;2023-07-22T02:38:13;101227.72;;;19.04;100.00
72896;BME280;61036;53.224;6.554;2023-07-22T02:40:39;101237.66;;;19.05;100.00
72896;BME280;61036;53.224;6.554;2023-07-22T02:43:05;101222.91;;;18.98;100.00
72896;BME280;61036;53.224;6.554;2023-07-22T02:45:36;101225.50;;;19.26;100.00
72896;BME280;61036;53.224;6.554;2023-07-22T02:48:02;101220.22;;;19.06;100.00
72896;BME280;61036;53.224;6.554;2023-07-22T02:50:27;101228.56;;;18.96;100.00
72896;BME280;61036;53.224;6.554;2023-07-22T02:52:53;101227.69;;;18.96;100.00
72896;BME280;61036;53.224;6.554;2023-07-22T02:55:18;101227.84;;;18.94;100.00
72896;BME280;61036;53.224;6.554;2023-07-22T02:57:45;101218.97;;;18.92;100.00
72896;BME280;61036;53.224;6.554;2023-07-22T03:00:15;101217.28;;;19.00;100.00
72896;BME280;61036;53.224;6.554;2023-07-22T03:02:54;101217.34;;;19.08;100.00
72896;BME280;61036;53.224;6.554;2023-07-22T03:05:25;101219.75;;;18.85;100.00
72896;BME280;61036;53.224;6.554;2023-07-22T03:07:51;101230.75;;;18.93;100.00
72896;BME280;61036;53.224;6.554;2023-07-22T03:10:18;101225.44;;;18.91;100.00
72896;BME280;61036;53.224;6.554;2023-07-22T03:12:44;101229.94;;;19.01;100.00
72896;BME280;61036;53.224;6.554;2023-07-22T03:15:09;101229.72;;;18.94;100.00
72896;BME280;61036;53.224;6.554;2023-07-22T03:17:36;101232.00;;;18.99;100.00
72896;BME280;61036;53.224;6.554;2023-07-22T03:20:03;101227.31;;;19.17;100.00
72896;BME280;61036;53.224;6.554;2023-07-22T03:22:39;101231.34;;;19.05;100.00
72896;BME280;61036;53.224;6.554;2023-07-22T03:25:05;101234.72;;;18.99;100.00
72896;BME280;61036;53.224;6.554;2023-07-22T03:27:34;101232.03;;;19.07;100.00
72896;BME280;61036;53.224;6.554;2023-07-22T03:29:59;101231.34;;;19.05;100.00
72896;BME280;61036;53.224;6.554;2023-07-22T03:32:25;101234.44;;;19.10;100.00
72896;BME280;61036;53.224;6.554;2023-07-22T03:34:50;101236.84;;;19.13;100.00
72896;BME280;61036;53.224;6.554;2023-07-22T03:37:16;101234.09;;;19.13;100.00
72896;BME280;61036;53.224;6.554;2023-07-22T03:39:41;101233.56;;;18.83;100.00
72896;BME280;61036;53.224;6.554;2023-07-22T03:42:07;101231.78;;;18.74;100.00
72896;BME280;61036;53.224;6.554;2023-07-22T03:44:32;101236.47;;;18.64;100.00
72896;BME280;61036;53.224;6.554;2023-07-22T03:46:59;101237.72;;;19.13;100.00
72896;BME280;61036;53.224;6.554;2023-07-22T03:49:25;101235.19;;;18.94;100.00
72896;BME280;61036;53.224;6.554;2023-07-22T03:51:50;101236.81;;;19.05;100.00
72896;BME280;61036;53.224;6.554;2023-07-22T03:54:16;101230.25;;;18.54;100.00
72896;BME280;61036;53.224;6.554;2023-07-22T03:56:41;101227.34;;;18.55;100.00
72896;BME280;61036;53.224;6.554;2023-07-22T03:59:07;101236.75;;;18.96;100.00
72896;BME280;61036;53.224;6.554;2023-07-22T04:01:32;101232.03;;;19.07;100.00
72896;BME280;61036;53.224;6.554;2023-07-22T04:03:58;101234.28;;;18.85;100.00
72896;BME280;61036;53.224;6.554;2023-07-22T04:06:23;101235.69;;;18.89;100.00
72896;BME280;61036;53.224;6.554;2023-07-22T04:08:49;101239.47;;;18.96;100.00
72896;BME280;61036;53.224;6.554;2023-07-22T04:11:14;101238.28;;;19.25;100.00
72896;BME280;61036;53.224;6.554;2023-07-22T04:13:40;101236.31;;;19.35;100.00
72896;BME280;61036;53.224;6.554;2023-07-22T04:16:05;101236.38;;;19.44;100.00
72896;BME280;61036;53.224;6.554;2023-07-22T04:18:31;101229.09;;;19.34;100.00
72896;BME280;61036;53.224;6.554;2023-07-22T04:21:00;101232.00;;;19.33;100.00
72896;BME280;61036;53.224;6.554;2023-07-22T04:23:26;101237.88;;;19.46;100.00
72896;BME280;61036;53.224;6.554;2023-07-22T04:25:52;101228.28;;;19.68;100.00
72896;BME280;61036;53.224;6.554;2023-07-22T04:28:17;101233.16;;;19.56;100.00
72896;BME280;61036;53.224;6.554;2023-07-22T04:30:43;101230.78;;;19.61;100.00
72896;BME280;61036;53.224;6.554;2023-07-22T04:33:08;101229.22;;;19.93;100.00
72896;BME280;61036;53.224;6.554;2023-07-22T04:35:38;101226.34;;;20.11;100.00
72896;BME280;61036;53.224;6.554;2023-07-22T04:38:06;101228.81;;;19.72;100.00
72896;BME280;61036;53.224;6.554;2023-07-22T04:40:32;101223.94;;;19.57;100.00
72896;BME280;61036;53.224;6.554;2023-07-22T04:42:57;101221.59;;;19.36;100.00
72896;BME280;61036;53.224;6.554;2023-07-22T04:45:23;101230.44;;;19.56;100.00
72896;BME280;61036;53.224;6.554;2023-07-22T04:47:50;101229.94;;;19.27;100.00
72896;BME280;61036;53.224;6.554;2023-07-22T04:50:16;101227.72;;;19.30;100.00
72896;BME280;61036;53.224;6.554;2023-07-22T04:52:44;101229.13;;;19.69;100.00
72896;BME280;61036;53.224;6.554;2023-07-22T04:55:10;101232.47;;;19.54;100.00
72896;BME280;61036;53.224;6.554;2023-07-22T04:57:37;101239.19;;;19.34;100.00
72896;BME280;61036;53.224;6.554;2023-07-22T05:00:03;101232.41;;;19.72;100.00
72896;BME280;61036;53.224;6.554;2023-07-22T05:02:30;101232.41;;;19.46;100.00
72896;BME280;61036;53.224;6.554;2023-07-22T05:04:58;101233.13;;;19.22;100.00
72896;BME280;61036;53.224;6.554;2023-07-22T05:07:24;101235.84;;;19.48;100.00
72896;BME280;61036;53.224;6.554;2023-07-22T05:09:50;101234.84;;;19.83;100.00
72896;BME280;61036;53.224;6.554;2023-07-22T05:12:17;101240.13;;;19.85;100.00
72896;BME280;61036;53.224;6.554;2023-07-22T05:14:42;101237.78;;;19.56;100.00
72896;BME280;61036;53.224;6.554;2023-07-22T05:17:08;101232.22;;;19.39;100.00
72896;BME280;61036;53.224;6.554;2023-07-22T05:19:33;101233.63;;;19.44;100.00
72896;BME280;61036;53.224;6.554;2023-07-22T05:21:59;101230.63;;;19.63;100.00
72896;BME280;61036;53.224;6.554;2023-07-22T05:24:24;101222.75;;;19.60;100.00
72896;BME280;61036;53.224;6.554;2023-07-22T05:26:50;101225.16;;;20.14;100.00
72896;BME280;61036;53.224;6.554;2023-07-22T05:29:15;101221.31;;;19.74;100.00
72896;BME280;61036;53.224;6.554;2023-07-22T05:31:41;101227.81;;;19.47;100.00
72896;BME280;61036;53.224;6.554;2023-07-22T05:34:07;101227.97;;;19.79;100.00
72896;BME280;61036;53.224;6.554;2023-07-22T05:36:32;101226.56;;;20.34;100.00
72896;BME280;61036;53.224;6.554;2023-07-22T05:38:58;101229.00;;;20.62;100.00
72896;BME280;61036;53.224;6.554;2023-07-22T05:41:23;101228.09;;;20.45;100.00
72896;BME280;61036;53.224;6.554;2023-07-22T05:43:49;101231.38;;;20.40;100.00
72896;BME280;61036;53.224;6.554;2023-07-22T05:46:14;101230.16;;;20.26;100.00
72896;BME280;61036;53.224;6.554;2023-07-22T05:48:40;101232.75;;;20.61;100.00
72896;BME280;61036;53.224;6.554;2023-07-22T05:51:05;101229.25;;;20.09;100.00
72896;BME280;61036;53.224;6.554;2023-07-22T05:53:32;101230.97;;;20.02;100.00
72896;BME280;61036;53.224;6.554;2023-07-22T05:55:58;101236.28;;;20.04;100.00
72896;BME280;61036;53.224;6.554;2023-07-22T05:58:24;101230.19;;;19.68;100.00
72896;BME280;61036;53.224;6.554;2023-07-22T06:00:49;101231.03;;;20.43;100.00
72896;BME280;61036;53.224;6.554;2023-07-22T06:03:17;101231.56;;;20.63;100.00
72896;BME280;61036;53.224;6.554;2023-07-22T06:05:43;101231.97;;;20.09;100.00
72896;BME280;61036;53.224;6.554;2023-07-22T06:08:08;101234.50;;;20.62;100.00
72896;BME280;61036;53.224;6.554;2023-07-22T06:10:34;101231.56;;;20.96;100.00
72896;BME280;61036;53.224;6.554;2023-07-22T06:13:00;101235.44;;;21.42;100.00
72896;BME280;61036;53.224;6.554;2023-07-22T06:15:25;101228.75;;;21.84;100.00
72896;BME280;61036;53.224;6.554;2023-07-22T06:17:51;101234.00;;;21.94;100.00
72896;BME280;61036;53.224;6.554;2023-07-22T06:20:16;101227.16;;;21.51;100.00
72896;BME280;61036;53.224;6.554;2023-07-22T06:22:41;101226.88;;;21.77;100.00
72896;BME280;61036;53.224;6.554;2023-07-22T06:25:08;101217.28;;;21.25;100.00
72896;BME280;61036;53.224;6.554;2023-07-22T06:27:34;101231.63;;;21.35;100.00
72896;BME280;61036;53.224;6.554;2023-07-22T06:30:00;101220.28;;;20.83;100.00
72896;BME280;61036;53.224;6.554;2023-07-22T06:32:26;101227.09;;;21.03;100.00
72896;BME280;61036;53.224;6.554;2023-07-22T06:34:51;101230.66;;;21.76;100.00
72896;BME280;61036;53.224;6.554;2023-07-22T06:37:17;101225.56;;;20.92;100.00
72896;BME280;61036;53.224;6.554;2023-07-22T06:39:42;101228.88;;;21.35;100.00
72896;BME280;61036;53.224;6.554;2023-07-22T06:42:08;101220.44;;;21.92;100.00
72896;BME280;61036;53.224;6.554;2023-07-22T06:44:33;101224.09;;;21.85;100.00
72896;BME280;61036;53.224;6.554;2023-07-22T06:46:59;101211.72;;;22.66;100.00
72896;BME280;61036;53.224;6.554;2023-07-22T06:49:24;101222.59;;;22.59;100.00
72896;BME280;61036;53.224;6.554;2023-07-22T06:51:50;101216.38;;;22.66;100.00
72896;BME280;61036;53.224;6.554;2023-07-22T06:54:15;101219.50;;;21.77;100.00
72896;BME280;61036;53.224;6.554;2023-07-22T06:56:41;101223.13;;;22.32;100.00
72896;BME280;61036;53.224;6.554;2023-07-22T06:59:06;101225.00;;;21.69;100.00
72896;BME280;61036;53.224;6.554;2023-07-22T07:01:32;101216.97;;;22.53;100.00
72896;BME280;61036;53.224;6.554;2023-07-22T07:03:57;101211.19;;;22.86;100.00
72896;BME280;61036;53.224;6.554;2023-07-22T07:06:23;101213.25;;;21.91;100.00
72896;BME280;61036;53.224;6.554;2023-07-22T07:08:48;101210.03;;;22.42;100.00
72896;BME280;61036;53.224;6.554;2023-07-22T07:11:14;101211.19;;;22.86;100.00
72896;BME280;61036;53.224;6.554;2023-07-22T07:13:39;101211.34;;;23.37;100.00
72896;BME280;61036;53.224;6.554;2023-07-22T07:16:25;101212.13;;;23.75;100.00
72896;BME280;61036;53.224;6.554;2023-07-22T07:18:51;101215.13;;;23.95;100.00
72896;BME280;61036;53.224;6.554;2023-07-22T07:21:18;101208.81;;;23.20;100.00
72896;BME280;61036;53.224;6.554;2023-07-22T07:23:44;101208.31;;;23.46;100.00
72896;BME280;61036;53.224;6.554;2023-07-22T07:26:12;101220.56;;;23.59;100.00
72896;BME280;61036;53.224;6.554;2023-07-22T07:28:37;101214.56;;;22.73;100.00
72896;BME280;61036;53.224;6.554;2023-07-22T07:31:03;101222.53;;;22.22;100.00
72896;BME280;61036;53.224;6.554;2023-07-22T07:33:28;101213.88;;;22.33;100.00
72896;BME280;61036;53.224;6.554;2023-07-22T07:35:54;101217.25;;;21.81;100.00
72896;BME280;61036;53.224;6.554;2023-07-22T07:38:19;101213.53;;;22.74;100.00
72896;BME280;61036;53.224;6.554;2023-07-22T07:40:45;101216.44;;;22.57;100.00
72896;BME280;61036;53.224;6.554;2023-07-22T07:43:10;101215.50;;;22.65;100.00
72896;BME280;61036;53.224;6.554;2023-07-22T07:45:39;101221.09;;;22.95;100.00
72896;BME280;61036;53.224;6.554;2023-07-22T07:48:05;101221.56;;;22.98;100.00
72896;BME280;61036;53.224;6.554;2023-07-22T07:50:32;101219.91;;;23.57;100.00
72896;BME280;61036;53.224;6.554;2023-07-22T07:52:57;101226.72;;;22.78;100.00
72896;BME280;61036;53.224;6.554;2023-07-22T07:55:25;101221.81;;;23.26;100.00
72896;BME280;61036;53.224;6.554;2023-07-22T07:57:50;101217.75;;;22.62;100.00
72896;BME280;61036;53.224;6.554;2023-07-22T08:00:16;101219.63;;;23.37;100.00
72896;BME280;61036;53.224;6.554;2023-07-22T08:02:42;101226.16;;;23.65;100.00
72896;BME280;61036;53.224;6.554;2023-07-22T08:05:07;101224.56;;;23.26;100.00
72896;BME280;61036;53.224;6.554;2023-07-22T08:07:33;101214.38;;;23.12;100.00
72896;BME280;61036;53.224;6.554;2023-07-22T08:09:59;101214.00;;;23.89;100.00
72896;BME280;61036;53.224;6.554;2023-07-22T08:12:24;101212.59;;;23.34;100.00
72896;BME280;61036;53.224;6.554;2023-07-22T08:14:52;101206.47;;;24.56;100.00
72896;BME280;61036;53.224;6.554;2023-07-22T08:17:18;101204.66;;;24.70;100.00
72896;BME280;61036;53.224;6.554;2023-07-22T08:19:43;101212.88;;;24.20;100.00
72896;BME280;61036;53.224;6.554;2023-07-22T08:22:09;101212.19;;;23.52;100.00
72896;BME280;61036;53.224;6.554;2023-07-22T08:24:35;101204.63;;;23.10;100.00
72896;BME280;61036;53.224;6.554;2023-07-22T08:27:00;101207.16;;;23.85;100.00
72896;BME280;61036;53.224;6.554;2023-07-22T08:29:26;101215.19;;;24.02;100.00
72896;BME280;61036;53.224;6.554;2023-07-22T08:31:51;101215.31;;;24.51;100.00
72896;BME280;61036;53.224;6.554;2023-07-22T08:34:17;101215.84;;;24.61;100.00
72896;BME280;61036;53.224;6.554;2023-07-22T08:36:42;101216.72;;;24.04;100.00
72896;BME280;61036;53.224;6.554;2023-07-22T08:39:07;101204.63;;;23.10;100.00
72896;BME280;61036;53.224;6.554;2023-07-22T08:41:33;101210.47;;;24.53;100.00
72896;BME280;61036;53.224;6.554;2023-07-22T08:44:00;101212.19;;;25.10;100.00
72896;BME280;61036;53.224;6.554;2023-07-22T08:46:29;101212.28;;;25.17;100.00
72896;BME280;61036;53.224;6.554;2023-07-22T08:48:59;101212.28;;;25.52;100.00
72896;BME280;61036;53.224;6.554;2023-07-22T08:51:26;101205.31;;;23.71;100.00
72896;BME280;61036;53.224;6.554;2023-07-22T08:53:53;101209.66;;;24.38;100.00
72896;BME280;61036;53.224;6.554;2023-07-22T08:56:24;101197.69;;;25.65;100.00
72896;BME280;61036;53.224;6.554;2023-07-22T08:58:51;101195.50;;;24.91;100.00
72896;BME280;61036;53.224;6.554;2023-07-22T09:01:17;101198.78;;;25.36;98.23
72896;BME280;61036;53.224;6.554;2023-07-22T09:03:43;101191.09;;;25.66;97.01
72896;BME280;61036;53.224;6.554;2023-07-22T09:06:08;101196.59;;;25.66;97.48
72896;BME280;61036;53.224;6.554;2023-07-22T09:08:34;101181.19;;;25.37;96.67
72896;BME280;61036;53.224;6.554;2023-07-22T09:11:01;101188.44;;;25.09;98.75
72896;BME280;61036;53.224;6.554;2023-07-22T09:13:27;101190.22;;;25.24;97.42
72896;BME280;61036;53.224;6.554;2023-07-22T09:15:53;101187.13;;;25.34;96.34
72896;BME280;61036;53.224;6.554;2023-07-22T09:18:21;101199.59;;;24.30;100.00
72896;BME280;61036;53.224;6.554;2023-07-22T09:20:47;101192.03;;;24.82;100.00
72896;BME280;61036;53.224;6.554;2023-07-22T09:23:13;101193.44;;;24.71;100.00
72896;BME280;61036;53.224;6.554;2023-07-22T09:25:39;101192.56;;;24.06;100.00
72896;BME280;61036;53.224;6.554;2023-07-22T09:28:06;101196.94;;;24.01;100.00
72896;BME280;61036;53.224;6.554;2023-07-22T09:30:35;101191.16;;;24.53;100.00
72896;BME280;61036;53.224;6.554;2023-07-22T09:33:05;101195.03;;;24.59;100.00
72896;BME280;61036;53.224;6.554;2023-07-22T09:35:44;101200.25;;;23.75;100.00
72896;BME280;61036;53.224;6.554;2023-07-22T09:38:10;101210.09;;;22.57;100.00
72896;BME280;61036;53.224;6.554;2023-07-22T09:40:35;101220.50;;;21.84;100.00
72896;BME280;61036;53.224;6.554;2023-07-22T09:43:01;101217.03;;;22.22;100.00
72896;BME280;61036;53.224;6.554;2023-07-22T09:45:29;101216.16;;;21.90;100.00
72896;BME280;61036;53.224;6.554;2023-07-22T09:47:55;101204.72;;;22.09;100.00
72896;BME280;61036;53.224;6.554;2023-07-22T09:50:23;101207.09;;;22.21;100.00
72896;BME280;61036;53.224;6.554;2023-07-22T09:52:54;101202.84;;;22.79;100.00
72896;BME280;61036;53.224;6.554;2023-07-22T09:55:22;101201.78;;;23.47;100.00
72896;BME280;61036;53.224;6.554;2023-07-22T09:57:59;101202.72;;;23.69;100.00
72896;BME280;61036;53.224;6.554;2023-07-22T10:00:28;101207.22;;;22.88;100.00
72896;BME280;61036;53.224;6.554;2023-07-22T10:02:57;101200.34;;;23.07;100.00
72896;BME280;61036;53.224;6.554;2023-07-22T10:05:24;101198.44;;;23.82;100.00
72896;BME280;61036;53.224;6.554;2023-07-22T10:07:52;101198.19;;;23.17;100.00
72896;BME280;61036;53.224;6.554;2023-07-22T10:10:21;101201.88;;;23.10;100.00
72896;BME280;61036;53.224;6.554;2023-07-22T10:12:51;101198.75;;;23.42;100.00
72896;BME280;61036;53.224;6.554;2023-07-22T10:15:16;101199.34;;;22.16;100.00
72896;BME280;61036;53.224;6.554;2023-07-22T10:17:45;101201.00;;;23.09;100.00
72896;BME280;61036;53.224;6.554;2023-07-22T10:20:12;101200.94;;;22.19;100.00
72896;BME280;61036;53.224;6.554;2023-07-22T10:22:45;101201.97;;;23.31;100.00
72896;BME280;61036;53.224;6.554;2023-07-22T10:25:16;101207.16;;;22.96;100.00
72896;BME280;61036;53.224;6.554;2023-07-22T10:27:42;101208.59;;;23.66;100.00
72896;BME280;61036;53.224;6.554;2023-07-22T10:30:09;101211.56;;;23.65;100.00
72896;BME280;61036;53.224;6.554;2023-07-22T10:32:40;101210.50;;;22.46;100.00
72896;BME280;61036;53.224;6.554;2023-07-22T10:35:11;101207.66;;;23.44;100.00
72896;BME280;61036;53.224;6.554;2023-07-22T10:37:39;101214.03;;;23.30;100.00
72896;BME280;61036;53.224;6.554;2023-07-22T10:40:18;101212.78;;;23.77;100.00
72896;BME280;61036;53.224;6.554;2023-07-22T10:42:57;101215.72;;;24.48;100.00
72896;BME280;61036;53.224;6.554;2023-07-22T10:45:28;101218.03;;;24.30;100.00
72896;BME280;61036;53.224;6.554;2023-07-22T10:48:05;101217.88;;;24.31;100.00
72896;BME280;61036;53.224;6.554;2023-07-22T10:53:13;101225.31;;;23.80;100.00
72896;BME280;61036;53.224;6.554;2023-07-22T11:04:10;101220.06;;;23.85;100.00
72896;BME280;61036;53.224;6.554;2023-07-22T11:11:58;101217.44;;;23.47;100.00
72896;BME280;61036;53.224;6.554;2023-07-22T11:14:25;101220.47;;;22.47;100.00
72896;BME280;61036;53.224;6.554;2023-07-22T11:16:52;101211.44;;;23.28;100.00
72896;BME280;61036;53.224;6.554;2023-07-22T11:19:19;101206.59;;;23.01;100.00
72896;BME280;61036;53.224;6.554;2023-07-22T11:21:46;101213.47;;;22.82;100.00
72896;BME280;61036;53.224;6.554;2023-07-22T11:24:13;101205.13;;;22.52;100.00
72896;BME280;61036;53.224;6.554;2023-07-22T11:26:39;101208.53;;;22.92;100.00
72896;BME280;61036;53.224;6.554;2023-07-22T11:29:07;101206.03;;;22.68;100.00
72896;BME280;61036;53.224;6.554;2023-07-22T11:31:37;101197.69;;;23.43;100.00
72896;BME280;61036;53.224;6.554;2023-07-22T11:34:03;101198.78;;;22.90;100.00
72896;BME280;61036;53.224;6.554;2023-07-22T11:36:30;101201.94;;;23.01;100.00
72896;BME280;61036;53.224;6.554;2023-07-22T11:39:10;101195.13;;;23.57;100.00
72896;BME280;61036;53.224;6.554;2023-07-22T11:41:36;101193.00;;;22.85;100.00
72896;BME280;61036;53.224;6.554;2023-07-22T11:44:03;101188.69;;;22.67;100.00
72896;BME280;61036;53.224;6.554;2023-07-22T11:46:59;101184.69;;;23.52;100.00
72896;BME280;61036;53.224;6.554;2023-07-22T11:52:05;101182.44;;;22.35;100.00
72896;BME280;61036;53.224;6.554;2023-07-22T11:54:33;101180.47;;;22.21;100.00
72896;BME280;61036;53.224;6.554;2023-07-22T11:57:16;101175.03;;;23.12;100.00
72896;BME280;61036;53.224;6.554;2023-07-22T11:59:50;101182.28;;;22.90;100.00
72896;BME280;61036;53.224;6.554;2023-07-22T12:02:24;101183.66;;;23.09;100.00
72896;BME280;61036;53.224;6.554;2023-07-22T12:05:05;101182.28;;;23.79;100.00
72896;BME280;61036;53.224;6.554;2023-07-22T12:07:32;101182.22;;;22.98;100.00
72896;BME280;61036;53.224;6.554;2023-07-22T12:10:00;101174.19;;;23.11;100.00
72896;BME280;61036;53.224;6.554;2023-07-22T12:12:36;101186.38;;;23.68;100.00
72896;BME280;61036;53.224;6.554;2023-07-22T12:15:09;101174.19;;;23.11;100.00
72896;BME280;61036;53.224;6.554;2023-07-22T12:17:55;101180.69;;;22.95;100.00
72896;BME280;61036;53.224;6.554;2023-07-22T12:20:33;101173.28;;;23.40;100.00
72896;BME280;61036;53.224;6.554;2023-07-22T12:22:59;101168.13;;;22.17;100.00
72896;BME280;61036;53.224;6.554;2023-07-22T12:25:25;101168.72;;;22.88;100.00
72896;BME280;61036;53.224;6.554;2023-07-22T12:27:51;101172.88;;;22.84;100.00
72896;BME280;61036;53.224;6.554;2023-07-22T12:30:16;101179.09;;;23.01;100.00
72896;BME280;61036;53.224;6.554;2023-07-22T12:32:46;101175.03;;;22.36;100.00
72896;BME280;61036;53.224;6.554;2023-07-22T12:35:11;101179.91;;;22.49;100.00
72896;BME280;61036;53.224;6.554;2023-07-22T12:37:39;101178.16;;;22.02;100.00
72896;BME280;61036;53.224;6.554;2023-07-22T12:40:05;101172.94;;;21.84;100.00
72896;BME280;61036;53.224;6.554;2023-07-22T12:42:34;101168.50;;;22.37;100.00
72896;BME280;61036;53.224;6.554;2023-07-22T12:44:59;101164.78;;;22.30;100.00
72896;BME280;61036;53.224;6.554;2023-07-22T12:47:26;101173.31;;;22.58;100.00
72896;BME280;61036;53.224;6.554;2023-07-22T12:49:51;101172.19;;;22.67;100.00
72896;BME280;61036;53.224;6.554;2023-07-22T12:52:17;101169.81;;;23.02;100.00
72896;BME280;61036;53.224;6.554;2023-07-22T12:54:42;101157.75;;;22.27;100.00
72896;BME280;61036;53.224;6.554;2023-07-22T12:57:08;101156.44;;;21.92;100.00
72896;BME280;61036;53.224;6.554;2023-07-22T12:59:33;101169.72;;;22.11;100.00